createdAt,value
2023-03-05T00:01:25.423Z,96.86
2023-03-05T00:03:53.567Z,97.17
2023-03-05T00:06:21.688Z,97.24
2023-03-05T00:08:51.113Z,96.69
2023-03-05T00:11:20.598Z,97.04
2023-03-05T00:13:47.108Z,97.04
2023-03-05T00:16:16.028Z,96.83
2023-03-05T00:18:42.830Z,96.84
2023-03-05T00:21:40.177Z,97.28
2023-03-05T00:24:13.810Z,97.93
2023-03-05T00:26:47.414Z,97.07
2023-03-05T00:29:18.481Z,97.09
2023-03-05T00:31:45.815Z,97.32
2023-03-05T00:34:15.529Z,96.99
2023-03-05T00:36:44.230Z,96.25
2023-03-05T00:39:11.777Z,96.52
2023-03-05T00:41:40.233Z,96.69
2023-03-05T00:44:07.182Z,95.98
2023-03-05T00:46:33.902Z,96.47
2023-03-05T00:49:09.501Z,95.94
2023-03-05T00:51:37.988Z,95.97
2023-03-05T00:54:06.072Z,96.00
2023-03-05T00:56:34.741Z,96.39
2023-03-05T00:59:03.578Z,96.31
2023-03-05T01:01:30.218Z,95.97
2023-03-05T01:03:59.275Z,96.54
2023-03-05T01:06:25.828Z,96.41
2023-03-05T01:08:52.402Z,97.13
2023-03-05T01:11:21.098Z,96.98
2023-03-05T01:13:47.720Z,96.61
2023-03-05T01:16:14.721Z,96.84
2023-03-05T01:18:43.455Z,96.99
2023-03-05T01:21:13.887Z,96.86
2023-03-05T01:23:40.414Z,97.52
2023-03-05T01:26:08.726Z,97.24
2023-03-05T01:28:35.717Z,97.97
2023-03-05T01:31:02.434Z,97.74
2023-03-05T01:33:30.646Z,98.48
2023-03-05T01:35:57.301Z,98.37
2023-03-05T01:38:23.848Z,98.54
2023-03-05T01:40:52.115Z,99.34
2023-03-05T01:43:28.724Z,98.67
2023-03-05T01:46:32.526Z,98.88
2023-03-05T01:49:24.660Z,100.00
2023-03-05T01:51:58.012Z,100.00
2023-03-05T01:54:38.883Z,100.00
2023-03-05T01:57:12.741Z,100.00
2023-03-05T01:59:42.828Z,100.00
2023-03-05T02:02:12.970Z,100.00
2023-03-05T02:05:05.434Z,100.00
2023-03-05T02:07:33.732Z,100.00
2023-03-05T02:10:00.349Z,100.00
2023-03-05T02:12:31.338Z,100.00
2023-03-05T02:14:59.497Z,100.00
2023-03-05T02:17:29.343Z,100.00
2023-03-05T02:20:07.543Z,100.00
2023-03-05T02:22:34.173Z,100.00
2023-03-05T02:25:00.786Z,100.00
2023-03-05T02:27:35.342Z,100.00
2023-03-05T02:30:02.729Z,100.00
2023-03-05T02:32:29.582Z,100.00
2023-03-05T02:34:58.291Z,100.00
2023-03-05T02:37:24.776Z,100.00
2023-03-05T02:39:51.326Z,100.00
2023-03-05T02:42:19.564Z,100.00
2023-03-05T02:44:48.322Z,100.00
2023-03-05T02:47:14.866Z,100.00
2023-03-05T02:49:43.552Z,100.00
2023-03-05T02:52:10.070Z,100.00
2023-03-05T02:54:36.750Z,100.00
2023-03-05T02:57:03.482Z,100.00
2023-03-05T02:59:30.145Z,100.00
2023-03-05T03:01:56.744Z,100.00
2023-03-05T03:04:25.275Z,100.00
2023-03-05T03:06:51.902Z,100.00
2023-03-05T03:09:18.405Z,100.00
2023-03-05T03:11:46.606Z,100.00
2023-03-05T03:14:13.112Z,100.00
2023-03-05T03:16:39.824Z,100.00
2023-03-05T03:19:08.170Z,100.00
2023-03-05T03:21:34.693Z,100.00
2023-03-05T03:24:01.197Z,100.00
2023-03-05T03:26:32.524Z,100.00
2023-03-05T03:28:59.054Z,100.00
2023-03-05T03:31:25.672Z,100.00
2023-03-05T03:33:54.497Z,100.00
2023-03-05T03:36:21.193Z,100.00
2023-03-05T03:38:47.674Z,100.00
2023-03-05T03:41:14.451Z,100.00
2023-03-05T03:43:41.132Z,100.00
2023-03-05T03:46:07.916Z,100.00
2023-03-05T03:48:40.239Z,100.00
2023-03-05T03:51:07.998Z,100.00
2023-03-05T03:53:34.532Z,100.00
2023-03-05T03:56:02.796Z,100.00
2023-03-05T03:58:29.542Z,100.00
2023-03-05T04:00:56.046Z,100.00
2023-03-05T04:03:24.392Z,100.00
2023-03-05T04:05:50.889Z,100.00
2023-03-05T04:08:17.602Z,100.00
2023-03-05T04:10:46.093Z,100.00
2023-03-05T04:13:12.630Z,100.00
2023-03-05T04:15:39.180Z,100.00
2023-03-05T04:18:07.515Z,100.00
2023-03-05T04:20:35.980Z,100.00
2023-03-05T04:23:02.719Z,100.00
2023-03-05T04:25:29.688Z,100.00
2023-03-05T04:27:56.242Z,100.00
2023-03-05T04:30:24.662Z,100.00
2023-03-05T04:32:53.399Z,100.00
2023-03-05T04:35:20.291Z,100.00
2023-03-05T04:37:47.353Z,100.00
2023-03-05T04:40:16.554Z,100.00
2023-03-05T04:42:43.115Z,100.00
2023-03-05T04:45:10.727Z,100.00
2023-03-05T04:47:39.510Z,100.00
2023-03-05T04:50:07.399Z,100.00
2023-03-05T04:52:34.092Z,100.00
2023-03-05T04:55:00.773Z,100.00
2023-03-05T04:57:27.288Z,100.00
2023-03-05T04:59:53.808Z,100.00
2023-03-05T05:02:26.890Z,100.00
2023-03-05T05:04:53.856Z,100.00
2023-03-05T05:07:21.237Z,100.00
2023-03-05T05:09:49.481Z,100.00
2023-03-05T05:12:16.081Z,100.00
2023-03-05T05:14:44.862Z,100.00
2023-03-05T05:17:11.482Z,100.00
2023-03-05T05:19:38.195Z,100.00
2023-03-05T05:22:04.758Z,100.00
2023-03-05T05:24:31.429Z,100.00
2023-03-05T05:26:59.830Z,100.00
2023-03-05T05:29:26.378Z,100.00
2023-03-05T05:31:54.336Z,100.00
2023-03-05T05:34:25.096Z,100.00
2023-03-05T05:36:52.205Z,100.00
2023-03-05T05:39:20.628Z,100.00
2023-03-05T05:41:50.702Z,100.00
2023-03-05T05:44:17.472Z,100.00
2023-03-05T05:46:45.835Z,100.00
2023-03-05T05:49:12.494Z,100.00
2023-03-05T05:51:39.289Z,100.00
2023-03-05T05:54:06.244Z,100.00
2023-03-05T05:56:33.948Z,100.00
2023-03-05T05:59:00.597Z,100.00
2023-03-05T06:01:32.477Z,100.00
2023-03-05T06:04:00.149Z,100.00
2023-03-05T06:06:28.080Z,100.00
2023-03-05T06:08:55.750Z,100.00
2023-03-05T06:11:23.044Z,100.00
2023-03-05T06:13:49.848Z,100.00
2023-03-05T06:16:19.376Z,100.00
2023-03-05T06:18:48.183Z,100.00
2023-03-05T06:21:16.566Z,100.00
2023-03-05T06:23:45.596Z,100.00
2023-03-05T06:26:13.989Z,100.00
2023-03-05T06:28:40.756Z,100.00
2023-03-05T06:31:11.839Z,100.00
2023-03-05T06:33:39.702Z,100.00
2023-03-05T06:36:08.703Z,100.00
2023-03-05T06:38:36.127Z,100.00
2023-03-05T06:41:09.301Z,100.00
2023-03-05T06:43:38.512Z,100.00
2023-03-05T06:46:19.924Z,100.00
2023-03-05T06:48:56.462Z,100.00
2023-03-05T06:51:29.281Z,100.00
2023-03-05T06:54:06.772Z,100.00
2023-03-05T06:56:36.279Z,100.00
2023-03-05T06:59:03.187Z,100.00
2023-03-05T07:01:37.474Z,100.00
2023-03-05T07:04:08.377Z,100.00
2023-03-05T07:06:38.213Z,100.00
2023-03-05T07:09:06.966Z,100.00
2023-03-05T07:11:34.176Z,100.00
2023-03-05T07:14:00.900Z,100.00
2023-03-05T07:16:32.492Z,100.00
2023-03-05T07:19:02.824Z,100.00
2023-03-05T07:21:32.056Z,99.10
2023-03-05T07:24:02.456Z,97.71
2023-03-05T07:26:29.134Z,96.11
2023-03-05T07:28:57.604Z,96.27
2023-03-05T07:31:31.300Z,94.74
2023-03-05T07:34:02.925Z,93.50
2023-03-05T07:36:30.836Z,92.45
2023-03-05T07:38:57.611Z,90.13
2023-03-05T07:41:24.204Z,87.76
2023-03-05T07:43:53.170Z,87.96
2023-03-05T07:46:24.613Z,86.94
2023-03-05T07:48:51.318Z,85.41
2023-03-05T07:51:20.211Z,84.00
2023-03-05T07:53:48.927Z,84.36
2023-03-05T07:56:24.282Z,83.80
2023-03-05T07:58:50.897Z,82.75
2023-03-05T08:01:17.467Z,80.27
2023-03-05T08:03:44.640Z,81.87
2023-03-05T08:06:14.104Z,81.46
2023-03-05T08:08:40.588Z,80.58
2023-03-05T08:11:17.485Z,79.77
2023-03-05T08:13:45.093Z,79.70
2023-03-05T08:16:17.079Z,78.61
2023-03-05T08:18:43.971Z,78.66
2023-03-05T08:21:26.893Z,77.76
2023-03-05T08:24:00.116Z,75.15
2023-03-05T08:26:28.667Z,76.45
2023-03-05T08:29:01.221Z,76.62
2023-03-05T08:31:34.630Z,75.84
2023-03-05T08:34:02.517Z,75.37
2023-03-05T08:36:29.443Z,74.84
2023-03-05T08:38:56.513Z,73.16
2023-03-05T08:41:23.134Z,72.94
2023-03-05T08:43:49.692Z,74.50
2023-03-05T08:46:29.560Z,74.35
2023-03-05T08:48:56.583Z,73.36
2023-03-05T08:51:25.911Z,71.54
2023-03-05T08:53:54.155Z,72.62
2023-03-05T08:56:21.087Z,70.58
2023-03-05T08:58:48.360Z,69.89
2023-03-05T09:01:17.339Z,66.60
2023-03-05T09:03:43.872Z,61.13
2023-03-05T09:06:12.430Z,58.31
2023-03-05T09:08:41.380Z,54.23
2023-03-05T09:11:11.581Z,52.12
2023-03-05T09:13:38.734Z,50.09
2023-03-05T09:16:09.042Z,48.22
2023-03-05T09:18:36.821Z,47.08
2023-03-05T09:21:18.414Z,44.91
2023-03-05T09:23:47.270Z,44.40
2023-03-05T09:26:16.426Z,43.77
2023-03-05T09:28:44.720Z,43.15
2023-03-05T09:31:12.025Z,42.56
2023-03-05T09:33:39.380Z,42.26
2023-03-05T09:36:19.738Z,39.47
2023-03-05T09:38:49.812Z,40.56
2023-03-05T09:41:56.790Z,38.32
2023-03-05T09:44:23.758Z,39.95
2023-03-05T09:46:52.779Z,40.06
2023-03-05T09:49:58.429Z,36.76
2023-03-05T09:52:50.360Z,39.07
2023-03-05T09:55:27.728Z,40.32
2023-03-05T09:57:59.545Z,41.40
2023-03-05T10:00:40.965Z,39.40
2023-03-05T10:03:17.826Z,39.34
2023-03-05T10:05:55.481Z,40.01
2023-03-05T10:08:28.575Z,40.14
2023-03-05T10:10:55.262Z,40.98
2023-03-05T10:13:34.523Z,41.79
2023-03-05T10:16:28.386Z,42.72
2023-03-05T10:19:08.449Z,43.47
2023-03-05T10:21:51.778Z,45.33
2023-03-05T10:24:29.761Z,48.40
2023-03-05T10:27:08.646Z,49.42
2023-03-05T10:30:17.162Z,48.62
2023-03-05T10:33:07.906Z,45.59
2023-03-05T10:36:02.913Z,51.49
2023-03-05T10:38:32.281Z,52.62
2023-03-05T10:41:16.477Z,52.52
2023-03-05T10:44:04.938Z,51.21
2023-03-05T10:46:37.483Z,52.09
2023-03-05T10:49:18.896Z,52.47
2023-03-05T10:52:06.289Z,51.75
2023-03-05T10:54:34.077Z,51.96
2023-03-05T10:57:33.152Z,51.46
2023-03-05T11:00:05.832Z,52.85
2023-03-05T11:02:35.772Z,52.31
2023-03-05T11:05:04.893Z,51.44
2023-03-05T11:07:34.813Z,52.16
2023-03-05T11:10:06.308Z,51.43
2023-03-05T11:12:37.194Z,51.99
2023-03-05T11:15:28.531Z,50.50
2023-03-05T11:18:17.059Z,51.56
2023-03-05T11:20:45.896Z,51.16
2023-03-05T11:23:12.340Z,51.07
2023-03-05T11:26:02.411Z,51.31
2023-03-05T11:28:37.810Z,52.02
2023-03-05T11:31:18.447Z,51.60
2023-03-05T11:34:05.194Z,50.40
2023-03-05T11:36:39.168Z,50.33
2023-03-05T11:39:11.164Z,51.06
2023-03-05T11:41:50.448Z,50.00
2023-03-05T11:44:34.649Z,49.80
2023-03-05T11:47:26.384Z,48.68
2023-03-05T11:50:00.786Z,48.02
2023-03-05T11:52:34.253Z,49.26
2023-03-05T11:55:13.383Z,49.37
2023-03-05T11:57:48.180Z,49.56
2023-03-05T12:00:18.236Z,48.10
2023-03-05T12:02:52.468Z,49.18
2023-03-05T12:05:20.496Z,49.17
2023-03-05T12:07:53.143Z,49.12
2023-03-05T12:10:23.591Z,49.06
2023-03-05T12:12:59.068Z,49.01
2023-03-05T12:15:36.908Z,49.01
2023-03-05T12:18:12.629Z,48.13
2023-03-05T12:21:28.377Z,46.20
2023-03-05T12:24:01.713Z,47.13
2023-03-05T12:27:04.547Z,47.08
2023-03-05T12:29:45.292Z,47.24
2023-03-05T12:32:35.456Z,47.66
2023-03-05T12:35:22.467Z,49.53
2023-03-05T12:37:51.936Z,49.26
2023-03-05T12:40:30.789Z,48.97
2023-03-05T12:43:03.141Z,48.59
2023-03-05T12:45:32.247Z,48.83
2023-03-05T12:47:58.735Z,48.99
2023-03-05T12:50:31.982Z,48.76
2023-03-05T12:53:10.212Z,48.63
2023-03-05T12:55:46.083Z,49.28
2023-03-05T12:58:19.444Z,50.23
2023-03-05T13:00:57.354Z,50.04
2023-03-05T13:03:34.061Z,49.81
2023-03-05T13:06:01.233Z,49.44
2023-03-05T13:08:31.735Z,49.17
2023-03-05T13:11:08.478Z,48.71
2023-03-05T13:13:43.100Z,47.69
2023-03-05T13:16:24.340Z,49.19
2023-03-05T13:18:52.350Z,49.69
2023-03-05T13:21:23.957Z,50.11
2023-03-05T13:23:58.234Z,50.60
2023-03-05T13:26:30.183Z,50.36
2023-03-05T13:29:15.760Z,50.18
2023-03-05T13:31:48.068Z,49.99
2023-03-05T13:34:20.795Z,50.96
2023-03-05T13:36:54.609Z,51.51
2023-03-05T13:39:25.353Z,50.81
2023-03-05T13:42:01.906Z,50.53
2023-03-05T13:44:30.163Z,50.23
2023-03-05T13:47:28.638Z,50.75
2023-03-05T13:50:00.115Z,50.64
2023-03-05T13:52:32.543Z,51.06
2023-03-05T13:54:59.991Z,50.51
2023-03-05T13:57:41.712Z,49.95
2023-03-05T14:00:38.997Z,50.30
2023-03-05T14:03:24.553Z,50.64
2023-03-05T14:05:51.458Z,50.17
2023-03-05T14:08:23.780Z,48.98
2023-03-05T14:10:51.081Z,50.00
2023-03-05T14:13:21.519Z,48.63
2023-03-05T14:16:06.715Z,49.48
2023-03-05T14:18:33.656Z,50.94
2023-03-05T14:21:00.274Z,50.24
2023-03-05T14:23:43.316Z,50.26
2023-03-05T14:26:40.250Z,49.90
2023-03-05T14:29:13.377Z,50.57
2023-03-05T14:32:05.842Z,50.30
2023-03-05T14:34:47.987Z,51.35
2023-03-05T14:37:25.188Z,49.48
2023-03-05T14:40:06.497Z,50.62
2023-03-05T14:42:50.501Z,51.04
2023-03-05T14:45:22.147Z,51.42
2023-03-05T14:47:50.858Z,50.93
2023-03-05T14:50:28.253Z,51.86
2023-03-05T14:52:57.983Z,52.06
2023-03-05T14:55:27.792Z,51.34
2023-03-05T14:58:03.621Z,52.07
2023-03-05T15:00:32.289Z,50.48
2023-03-05T15:02:58.819Z,51.12
2023-03-05T15:05:25.555Z,51.31
2023-03-05T15:07:52.489Z,52.19
2023-03-05T15:10:21.774Z,50.86
2023-03-05T15:12:53.471Z,52.27
2023-03-05T15:15:21.443Z,53.40
2023-03-05T15:17:51.773Z,51.86
2023-03-05T15:20:28.699Z,53.27
2023-03-05T15:22:55.468Z,52.67
2023-03-05T15:25:24.322Z,52.94
2023-03-05T15:27:51.191Z,52.36
2023-03-05T15:30:27.917Z,52.29
2023-03-05T15:33:01.631Z,51.21
2023-03-05T15:35:31.948Z,52.44
2023-03-05T15:37:58.674Z,52.12
2023-03-05T15:40:29.514Z,52.43
2023-03-05T15:42:57.064Z,53.24
2023-03-05T15:45:24.645Z,53.72
2023-03-05T15:47:53.011Z,54.18
2023-03-05T15:50:21.300Z,54.85
2023-03-05T15:52:51.628Z,54.80
2023-03-05T15:55:18.648Z,54.82
2023-03-05T15:57:47.863Z,55.39
2023-03-05T16:00:16.350Z,55.08
2023-03-05T16:02:43.119Z,54.95
2023-03-05T16:05:10.164Z,55.61
2023-03-05T16:07:40.476Z,55.97
2023-03-05T16:10:11.276Z,56.34
2023-03-05T16:12:41.080Z,56.38
2023-03-05T16:15:13.692Z,56.37
2023-03-05T16:17:44.034Z,56.13
2023-03-05T16:20:12.097Z,56.12
2023-03-05T16:22:39.235Z,56.07
2023-03-05T16:25:06.234Z,56.23
2023-03-05T16:27:32.798Z,55.87
2023-03-05T16:30:03.803Z,56.34
2023-03-05T16:32:30.350Z,56.37
2023-03-05T16:34:58.368Z,56.68
2023-03-05T16:37:25.998Z,56.55
2023-03-05T16:39:52.493Z,56.85
2023-03-05T16:42:19.128Z,56.57
2023-03-05T16:44:48.741Z,57.02
2023-03-05T16:47:21.450Z,57.26
2023-03-05T16:49:51.830Z,57.48
2023-03-05T16:52:19.705Z,57.33
2023-03-05T16:54:47.650Z,57.66
2023-03-05T16:57:16.690Z,57.96
2023-03-05T16:59:45.432Z,58.70
2023-03-05T17:02:13.317Z,59.02
2023-03-05T17:04:41.674Z,59.81
2023-03-05T17:07:08.249Z,60.35
2023-03-05T17:09:34.886Z,61.13
2023-03-05T17:12:05.874Z,62.34
2023-03-05T17:14:32.475Z,62.33
2023-03-05T17:16:59.044Z,62.63
2023-03-05T17:19:25.822Z,63.26
2023-03-05T17:21:52.626Z,63.18
2023-03-05T17:24:22.330Z,63.92
2023-03-05T17:26:51.474Z,64.57
2023-03-05T17:29:19.314Z,65.08
2023-03-05T17:31:46.841Z,65.42
2023-03-05T17:34:16.686Z,65.81
2023-03-05T17:36:48.553Z,66.12
2023-03-05T17:39:15.099Z,66.50
2023-03-05T17:41:41.726Z,66.62
2023-03-05T17:44:11.625Z,67.02
2023-03-05T17:46:38.296Z,67.39
2023-03-05T17:49:09.090Z,67.78
2023-03-05T17:51:35.628Z,68.12
2023-03-05T17:54:02.389Z,68.38
2023-03-05T17:56:29.176Z,68.58
2023-03-05T17:58:56.225Z,68.94
2023-03-05T18:01:32.803Z,69.28
2023-03-05T18:03:59.614Z,69.43
2023-03-05T18:06:26.917Z,69.34
2023-03-05T18:08:57.880Z,69.63
2023-03-05T18:11:24.541Z,70.02
2023-03-05T18:13:51.118Z,70.29
2023-03-05T18:16:18.461Z,70.92
2023-03-05T18:18:45.418Z,71.09
2023-03-05T18:21:12.081Z,71.37
2023-03-05T18:23:40.403Z,71.83
2023-03-05T18:26:06.966Z,71.59
2023-03-05T18:28:33.425Z,71.78
2023-03-05T18:31:07.458Z,72.37
2023-03-05T18:33:34.158Z,72.35
2023-03-05T18:36:00.857Z,73.29
2023-03-05T18:38:29.819Z,73.95
2023-03-05T18:40:57.448Z,74.79
2023-03-05T18:43:24.508Z,75.07
2023-03-05T18:45:53.093Z,76.37
2023-03-05T18:48:20.524Z,76.58
2023-03-05T18:50:50.790Z,77.10
2023-03-05T18:53:21.713Z,77.41
2023-03-05T18:55:49.757Z,77.71
2023-03-05T18:58:17.615Z,77.99
2023-03-05T19:00:47.441Z,78.47
2023-03-05T19:03:15.581Z,78.32
2023-03-05T19:05:42.574Z,79.19
2023-03-05T19:08:09.620Z,79.31
2023-03-05T19:10:36.453Z,79.75
2023-03-05T19:13:40.502Z,80.64
2023-03-05T19:16:12.409Z,80.57
2023-03-05T19:19:16.869Z,81.22
2023-03-05T19:21:47.786Z,82.23
2023-03-05T19:24:15.283Z,81.62
2023-03-05T19:26:48.993Z,82.45
2023-03-05T19:29:16.880Z,83.92
2023-03-05T19:31:43.381Z,83.75
2023-03-05T19:34:10.287Z,84.42
2023-03-05T19:36:36.941Z,84.88
2023-03-05T19:39:07.846Z,84.73
2023-03-05T19:41:41.153Z,85.15
2023-03-05T19:44:07.693Z,85.30
2023-03-05T19:46:34.371Z,85.33
2023-03-05T19:49:03.024Z,85.48
2023-03-05T19:51:29.662Z,85.53
2023-03-05T19:53:56.251Z,86.25
2023-03-05T19:56:24.721Z,86.55
2023-03-05T19:58:51.447Z,86.21
2023-03-05T20:01:21.011Z,86.45
2023-03-05T20:03:49.346Z,86.71
2023-03-05T20:06:16.124Z,86.72
2023-03-05T20:08:43.240Z,87.14
2023-03-05T20:11:14.282Z,87.16
2023-03-05T20:13:40.997Z,88.02
2023-03-05T20:16:17.095Z,88.00
2023-03-05T20:18:44.256Z,88.37
2023-03-05T20:21:16.060Z,88.46
2023-03-05T20:23:42.793Z,88.58
2023-03-05T20:26:10.936Z,88.89
2023-03-05T20:28:37.442Z,88.15
2023-03-05T20:31:04.116Z,88.54
2023-03-05T20:33:30.791Z,88.20
2023-03-05T20:35:57.536Z,88.92
2023-03-05T20:38:25.525Z,88.95
2023-03-05T20:40:54.367Z,88.84
2023-03-05T20:43:23.329Z,88.83
2023-03-05T20:45:55.668Z,89.31
2023-03-05T20:48:22.149Z,88.86
2023-03-05T20:50:48.715Z,89.34
2023-03-05T20:53:17.568Z,89.00
2023-03-05T20:55:44.338Z,88.74
2023-03-05T20:58:14.707Z,89.03
2023-03-05T21:00:42.214Z,89.47
2023-03-05T21:03:09.560Z,89.83
2023-03-05T21:05:37.220Z,90.38
2023-03-05T21:08:08.408Z,90.98
2023-03-05T21:10:34.884Z,91.37
2023-03-05T21:13:01.404Z,91.10
2023-03-05T21:15:29.596Z,91.43
2023-03-05T21:17:57.349Z,92.30
2023-03-05T21:20:29.921Z,91.90
2023-03-05T21:22:58.036Z,91.48
2023-03-05T21:25:29.720Z,91.91
2023-03-05T21:28:09.555Z,91.84
2023-03-05T21:30:39.647Z,91.64
2023-03-05T21:33:10.062Z,91.62
2023-03-05T21:35:36.856Z,91.93
2023-03-05T21:38:05.359Z,91.76
2023-03-05T21:40:33.245Z,91.83
2023-03-05T21:43:00.232Z,91.54
2023-03-05T21:45:28.556Z,91.39
2023-03-05T21:47:56.244Z,91.79
2023-03-05T21:50:26.255Z,92.12
2023-03-05T21:52:54.782Z,91.95
2023-03-05T21:56:05.290Z,92.53
2023-03-05T21:58:33.379Z,92.68
2023-03-05T22:01:00.428Z,92.55
2023-03-05T22:03:29.620Z,93.11
2023-03-05T22:05:56.472Z,93.19
2023-03-05T22:08:23.258Z,93.30
2023-03-05T22:10:52.079Z,93.64
2023-03-05T22:13:20.186Z,94.21
2023-03-05T22:15:58.424Z,94.08
2023-03-05T22:18:30.652Z,94.60
2023-03-05T22:20:58.303Z,94.95
2023-03-05T22:23:29.535Z,95.49
2023-03-05T22:26:02.333Z,95.83
2023-03-05T22:28:29.462Z,95.75
2023-03-05T22:30:58.445Z,95.43
2023-03-05T22:33:25.815Z,95.74
2023-03-05T22:35:52.813Z,95.94
2023-03-05T22:38:20.296Z,96.44
2023-03-05T22:40:48.101Z,96.57
2023-03-05T22:43:15.818Z,96.89
2023-03-05T22:45:44.152Z,96.95
2023-03-05T22:48:11.587Z,96.86
2023-03-05T22:50:39.120Z,97.29
2023-03-05T22:53:07.791Z,96.81
2023-03-05T22:55:34.494Z,97.79
2023-03-05T22:58:04.400Z,97.14
2023-03-05T23:00:31.079Z,97.56
2023-03-05T23:02:57.654Z,97.30
2023-03-05T23:05:24.253Z,97.02
2023-03-05T23:07:50.850Z,96.91
2023-03-05T23:10:26.425Z,97.14
2023-03-05T23:12:55.651Z,96.80
2023-03-05T23:15:37.081Z,96.65
2023-03-05T23:18:08.654Z,97.61
2023-03-05T23:20:37.047Z,97.57
2023-03-05T23:23:03.963Z,97.71
2023-03-05T23:25:34.611Z,98.37
2023-03-05T23:28:01.884Z,98.48
2023-03-05T23:30:32.223Z,98.91
2023-03-05T23:33:13.720Z,98.84
2023-03-05T23:35:42.776Z,98.81
2023-03-05T23:38:16.996Z,100.00
2023-03-05T23:40:46.723Z,99.96
2023-03-05T23:43:14.067Z,99.75
2023-03-05T23:45:44.137Z,100.00
2023-03-05T23:48:11.680Z,100.00
2023-03-05T23:50:40.812Z,100.00
2023-03-05T23:53:07.977Z,100.00
2023-03-05T23:55:41.870Z,100.00
2023-03-05T23:58:10.781Z,100.00
